createdAt,value
2022-11-13T00:00:50.695Z,4.3
2022-11-13T00:07:10.614Z,4.3
2022-11-13T00:13:33.585Z,5.2
2022-11-13T00:19:53.736Z,5.2
2022-11-13T00:26:16.479Z,3.6
2022-11-13T00:32:36.550Z,3.6
2022-11-13T00:38:59.705Z,6.4
2022-11-13T00:45:19.567Z,6.4
2022-11-13T00:51:42.591Z,3.8
2022-11-13T00:58:02.684Z,3.8
2022-11-13T01:04:25.623Z,2.6
2022-11-13T01:10:47.580Z,2.6
2022-11-13T01:17:08.710Z,3.8
2022-11-13T01:23:28.647Z,3.8
2022-11-13T01:29:51.597Z,4.3
2022-11-13T01:36:11.677Z,4.3
2022-11-13T01:42:34.645Z,2.9
2022-11-13T01:48:54.566Z,2.9
2022-11-13T01:55:17.782Z,4.7
2022-11-13T02:01:37.639Z,4.7
2022-11-13T02:08:00.553Z,4.8
2022-11-13T02:14:20.694Z,4.8
2022-11-13T02:20:43.568Z,3.4
2022-11-13T02:27:03.668Z,3.4
2022-11-13T02:33:26.627Z,3.3
2022-11-13T02:39:46.665Z,3.3
2022-11-13T02:46:09.525Z,3.8
2022-11-13T02:52:29.913Z,3.8
2022-11-13T02:58:52.537Z,3.9
2022-11-13T03:05:13.778Z,3.9
2022-11-13T03:11:35.802Z,3.2
2022-11-13T03:17:55.691Z,3.2
2022-11-13T03:24:18.701Z,2.8
2022-11-13T03:30:38.813Z,2.8
2022-11-13T03:37:01.652Z,3.8
2022-11-13T03:43:21.501Z,3.8
2022-11-13T03:49:44.629Z,3
2022-11-13T03:56:04.620Z,3
2022-11-13T04:02:27.625Z,6
2022-11-13T04:08:47.599Z,6
2022-11-13T04:25:16.675Z,8.4
2022-11-13T04:31:36.588Z,8.4
2022-11-13T04:37:59.483Z,8.4
2022-11-13T04:44:19.608Z,8.4
2022-11-13T04:50:42.498Z,4
2022-11-13T04:57:02.516Z,4
2022-11-13T05:03:25.748Z,3
2022-11-13T05:09:45.588Z,3
2022-11-13T05:16:08.697Z,5
2022-11-13T05:22:28.717Z,5
2022-11-13T05:28:51.579Z,3
2022-11-13T05:35:11.583Z,3
2022-11-13T05:41:34.713Z,4.3
2022-11-13T05:47:54.649Z,4.3
2022-11-13T05:54:17.605Z,2.4
2022-11-13T06:00:37.728Z,2.4
2022-11-13T06:07:00.566Z,4.1
2022-11-13T06:13:20.486Z,4.1
2022-11-13T06:19:43.772Z,4.1
2022-11-13T06:26:03.586Z,4.1
2022-11-13T06:32:26.658Z,3.4
2022-11-13T06:38:46.780Z,3.4
2022-11-13T06:45:09.615Z,3.2
2022-11-13T06:51:29.509Z,3.2
2022-11-13T06:57:52.592Z,4.3
2022-11-13T07:04:12.759Z,4.3
2022-11-13T07:10:35.517Z,3.9
2022-11-13T07:17:09.027Z,3.9
2022-11-13T07:23:18.608Z,3.4
2022-11-13T07:29:38.659Z,3.4
2022-11-13T07:36:01.743Z,2.9
2022-11-13T07:42:21.524Z,2.9
2022-11-13T07:48:44.657Z,4
2022-11-13T07:55:04.649Z,4
2022-11-13T08:01:27.636Z,2.9
2022-11-13T08:07:51.160Z,2.9
2022-11-13T08:14:10.770Z,2.6
2022-11-13T08:20:30.956Z,2.6
2022-11-13T08:26:53.814Z,3.1
2022-11-13T08:33:13.963Z,3.1
2022-11-13T08:39:36.537Z,4.5
2022-11-13T08:45:56.564Z,4.5
2022-11-13T08:52:19.655Z,3.3
2022-11-13T08:58:39.601Z,3.3
2022-11-13T09:05:02.807Z,2.7
2022-11-13T09:11:22.960Z,2.7
2022-11-13T09:27:33.932Z,2.6
2022-11-13T09:33:53.529Z,2.6
2022-11-13T09:40:16.518Z,3.3
2022-11-13T09:46:36.636Z,3.3
2022-11-13T09:52:59.548Z,1.4
2022-11-13T09:59:19.561Z,1.4
2022-11-13T10:05:42.656Z,2
2022-11-13T10:12:02.725Z,2
2022-11-13T10:18:25.747Z,2
2022-11-13T10:24:45.712Z,2
2022-11-13T10:31:08.541Z,0.9
2022-11-13T10:37:28.498Z,0.9
2022-11-13T10:43:51.591Z,1.6
2022-11-13T10:50:11.695Z,1.6
2022-11-13T10:56:34.468Z,0.7
2022-11-13T11:02:54.648Z,0.7
2022-11-13T11:09:17.513Z,1.3
2022-11-13T11:15:37.513Z,1.3
2022-11-13T11:22:00.645Z,1.5
2022-11-13T11:28:20.908Z,1.5
2022-11-13T11:34:43.770Z,1.5
2022-11-13T11:41:03.617Z,1.5
2022-11-13T11:47:26.477Z,0.6
2022-11-13T11:53:46.603Z,0.6
2022-11-13T12:00:09.520Z,1.1
2022-11-13T12:06:29.503Z,1.1
2022-11-13T12:12:52.489Z,1.8
2022-11-13T12:19:12.600Z,1.8
2022-11-13T12:25:35.489Z,0.9
2022-11-13T12:31:55.487Z,0.9
2022-11-13T12:38:18.582Z,1.3
2022-11-13T12:44:38.501Z,1.3
2022-11-13T12:51:01.491Z,1.2
2022-11-13T12:57:23.455Z,1.2
2022-11-13T13:03:44.467Z,1.4
2022-11-13T13:10:04.504Z,1.4
2022-11-13T13:16:27.589Z,1.6
2022-11-13T13:22:47.483Z,1.6
2022-11-13T13:29:10.472Z,1.5
2022-11-13T13:35:30.600Z,1.5
2022-11-13T13:41:53.462Z,1.1
2022-11-13T13:48:13.472Z,1.1
2022-11-13T13:54:36.591Z,1.6
2022-11-13T14:01:16.951Z,1.6
2022-11-13T14:07:19.504Z,1.6
2022-11-13T14:13:39.589Z,1.6
2022-11-13T14:20:02.475Z,1
2022-11-13T14:26:22.479Z,1
2022-11-13T14:32:47.234Z,1.8
2022-11-13T14:39:05.494Z,1.8
2022-11-13T14:45:28.501Z,2.1
2022-11-13T14:51:48.590Z,2.1
2022-11-13T14:58:11.481Z,1.6
2022-11-13T15:04:33.345Z,1.6
2022-11-13T15:10:54.593Z,0.8
2022-11-13T15:28:02.472Z,0.9
2022-11-13T15:34:25.507Z,1.8
2022-11-13T15:40:45.490Z,1.8
2022-11-13T15:47:08.705Z,1.6
2022-11-13T15:53:28.812Z,1.6
2022-11-13T15:59:51.552Z,2.3
2022-11-13T16:06:11.682Z,2.3
2022-11-13T16:12:34.559Z,2.3
2022-11-13T16:18:58.924Z,2.3
2022-11-13T16:25:17.724Z,2.4
2022-11-13T16:31:37.653Z,2.4
2022-11-13T16:38:00.568Z,1.8
2022-11-13T16:44:20.587Z,1.8
2022-11-13T16:50:43.620Z,2.5
2022-11-13T16:57:03.635Z,2.5
2022-11-13T17:03:27.082Z,1.4
2022-11-13T17:09:46.743Z,1.4
2022-11-13T17:16:09.667Z,2.9
2022-11-13T17:22:29.753Z,2.9
2022-11-13T17:28:52.566Z,3.8
2022-11-13T17:35:12.642Z,3.8
2022-11-13T17:41:35.756Z,4.9
2022-11-13T17:47:55.533Z,4.9
2022-11-13T17:54:18.606Z,4.2
2022-11-13T18:00:38.672Z,4.2
2022-11-13T18:07:01.604Z,4
2022-11-13T18:13:21.622Z,4
2022-11-13T18:19:44.716Z,4.3
2022-11-13T18:26:04.659Z,4.3
2022-11-13T18:32:27.546Z,4.6
2022-11-13T18:38:47.703Z,4.6
2022-11-13T18:45:10.647Z,4.8
2022-11-13T18:51:30.581Z,4.8
2022-11-13T18:57:53.768Z,5.4
2022-11-13T19:04:22.625Z,5.4
2022-11-13T19:10:36.471Z,4.1
2022-11-13T19:16:56.650Z,4.1
2022-11-13T19:23:19.600Z,3.3
2022-11-13T19:29:39.541Z,3.3
2022-11-13T19:36:02.605Z,4.5
2022-11-13T19:42:22.679Z,4.5
2022-11-13T19:48:45.662Z,1.9
2022-11-13T19:55:05.669Z,1.9
2022-11-13T20:01:28.616Z,2.8
2022-11-13T20:07:48.555Z,2.8
2022-11-13T20:14:11.599Z,3.7
2022-11-13T20:37:17.541Z,2.2
2022-11-13T20:43:37.466Z,2.2
2022-11-13T20:50:00.550Z,3
2022-11-13T20:56:20.723Z,3
2022-11-13T21:02:43.559Z,3
2022-11-13T21:09:03.631Z,3
2022-11-13T21:15:26.607Z,2.8
2022-11-13T21:21:46.506Z,2.8
2022-11-13T21:28:10.065Z,4.9
2022-11-13T21:34:30.062Z,4.9
2022-11-13T21:40:52.769Z,7.6
2022-11-13T21:47:12.560Z,7.6
2022-11-13T21:53:35.652Z,4.5
2022-11-13T21:59:55.584Z,4.5
2022-11-13T22:06:18.545Z,3.6
2022-11-13T22:12:38.729Z,3.6
2022-11-13T22:19:01.587Z,3.7
2022-11-13T22:25:21.659Z,3.7
2022-11-13T22:31:44.765Z,2.6
2022-11-13T22:38:04.535Z,2.6
2022-11-13T22:44:40.195Z,2.7
2022-11-13T22:50:47.607Z,2.7
2022-11-13T22:57:10.492Z,4.4
2022-11-13T23:22:41.587Z,8.1
2022-11-13T23:29:01.493Z,8.1
2022-11-13T23:35:24.473Z,8.1
2022-11-13T23:41:44.669Z,8.1
2022-11-13T23:48:07.616Z,3.8
2022-11-13T23:54:27.576Z,3.8
